sensor_id;sensor_type;location;lat;lon;timestamp;P1;durP1;ratioP1;P2;durP2;ratioP2
43216;SDS011;60511;42.686;23.300;2023-03-01T00:01:48;2.53;;;2.33;;
43216;SDS011;60511;42.686;23.300;2023-03-01T00:03:48;2.40;;;2.20;;
43216;SDS011;60511;42.686;23.300;2023-03-01T00:05:49;2.03;;;1.92;;
43216;SDS011;60511;42.686;23.300;2023-03-01T00:07:52;1.90;;;1.80;;
43216;SDS011;60511;42.686;23.300;2023-03-01T00:09:53;2.03;;;1.92;;
43216;SDS011;60511;42.686;23.300;2023-03-01T00:11:54;2.17;;;1.98;;
43216;SDS011;60511;42.686;23.300;2023-03-01T00:13:55;1.80;;;1.70;;
43216;SDS011;60511;42.686;23.300;2023-03-01T00:15:58;2.03;;;1.80;;
43216;SDS011;60511;42.686;23.300;2023-03-01T00:17:58;1.95;;;1.75;;
43216;SDS011;60511;42.686;23.300;2023-03-01T00:19:58;2.13;;;1.92;;
43216;SDS011;60511;42.686;23.300;2023-03-01T00:21:59;2.10;;;2.00;;
43216;SDS011;60511;42.686;23.300;2023-03-01T00:23:59;2.03;;;1.67;;
43216;SDS011;60511;42.686;23.300;2023-03-01T00:25:59;1.80;;;1.70;;
43216;SDS011;60511;42.686;23.300;2023-03-01T00:28:00;1.75;;;1.65;;
43216;SDS011;60511;42.686;23.300;2023-03-01T00:30:00;2.25;;;2.05;;
43216;SDS011;60511;42.686;23.300;2023-03-01T00:32:01;1.77;;;1.67;;
43216;SDS011;60511;42.686;23.300;2023-03-01T00:34:03;1.80;;;1.70;;
43216;SDS011;60511;42.686;23.300;2023-03-01T00:36:04;1.60;;;1.50;;
43216;SDS011;60511;42.686;23.300;2023-03-01T00:38:06;2.35;;;2.03;;
43216;SDS011;60511;42.686;23.300;2023-03-01T00:40:06;1.80;;;1.70;;
43216;SDS011;60511;42.686;23.300;2023-03-01T00:42:07;2.08;;;1.98;;
43216;SDS011;60511;42.686;23.300;2023-03-01T00:44:08;1.77;;;1.67;;
43216;SDS011;60511;42.686;23.300;2023-03-01T00:46:10;1.67;;;1.58;;
43216;SDS011;60511;42.686;23.300;2023-03-01T00:48:12;1.50;;;1.40;;
43216;SDS011;60511;42.686;23.300;2023-03-01T00:50:13;1.55;;;1.45;;
43216;SDS011;60511;42.686;23.300;2023-03-01T00:52:13;1.70;;;1.60;;
43216;SDS011;60511;42.686;23.300;2023-03-01T00:54:14;1.55;;;1.45;;
43216;SDS011;60511;42.686;23.300;2023-03-01T00:56:14;2.15;;;1.60;;
43216;SDS011;60511;42.686;23.300;2023-03-01T00:58:15;2.10;;;1.70;;
43216;SDS011;60511;42.686;23.300;2023-03-01T01:00:15;1.90;;;1.80;;
43216;SDS011;60511;42.686;23.300;2023-03-01T01:02:16;1.85;;;1.42;;
43216;SDS011;60511;42.686;23.300;2023-03-01T01:04:16;1.40;;;1.30;;
43216;SDS011;60511;42.686;23.300;2023-03-01T01:06:18;1.77;;;1.67;;
43216;SDS011;60511;42.686;23.300;2023-03-01T01:08:20;1.30;;;1.20;;
43216;SDS011;60511;42.686;23.300;2023-03-01T01:10:21;1.45;;;1.35;;
43216;SDS011;60511;42.686;23.300;2023-03-01T01:12:21;1.80;;;1.67;;
43216;SDS011;60511;42.686;23.300;2023-03-01T01:14:22;1.58;;;1.48;;
43216;SDS011;60511;42.686;23.300;2023-03-01T01:16:23;1.63;;;1.52;;
43216;SDS011;60511;42.686;23.300;2023-03-01T01:18:25;1.67;;;1.58;;
43216;SDS011;60511;42.686;23.300;2023-03-01T01:20:26;2.08;;;1.52;;
43216;SDS011;60511;42.686;23.300;2023-03-01T01:22:26;1.92;;;1.50;;
43216;SDS011;60511;42.686;23.300;2023-03-01T01:24:26;1.90;;;1.60;;
43216;SDS011;60511;42.686;23.300;2023-03-01T01:26:28;1.92;;;1.20;;
43216;SDS011;60511;42.686;23.300;2023-03-01T01:28:29;1.67;;;1.58;;
43216;SDS011;60511;42.686;23.300;2023-03-01T01:30:29;1.40;;;1.30;;
43216;SDS011;60511;42.686;23.300;2023-03-01T01:32:30;1.35;;;1.25;;
43216;SDS011;60511;42.686;23.300;2023-03-01T01:34:30;1.40;;;1.30;;
43216;SDS011;60511;42.686;23.300;2023-03-01T01:36:31;1.20;;;1.10;;
43216;SDS011;60511;42.686;23.300;2023-03-01T01:38:32;1.40;;;1.30;;
43216;SDS011;60511;42.686;23.300;2023-03-01T01:40:33;1.38;;;1.20;;
43216;SDS011;60511;42.686;23.300;2023-03-01T01:42:33;1.20;;;1.10;;
43216;SDS011;60511;42.686;23.300;2023-03-01T01:44:34;0.95;;;0.85;;
43216;SDS011;60511;42.686;23.300;2023-03-01T01:46:36;1.10;;;1.00;;
43216;SDS011;60511;42.686;23.300;2023-03-01T01:48:43;1.02;;;0.93;;
43216;SDS011;60511;42.686;23.300;2023-03-01T01:50:51;1.00;;;1.00;;
43216;SDS011;60511;42.686;23.300;2023-03-01T01:52:57;1.02;;;0.93;;
43216;SDS011;60511;42.686;23.300;2023-03-01T01:57:06;16.00;;;14.48;;
43216;SDS011;60511;42.686;23.300;2023-03-01T01:59:11;5.38;;;4.72;;
43216;SDS011;60511;42.686;23.300;2023-03-01T02:01:12;35.53;;;29.40;;
43216;SDS011;60511;42.686;23.300;2023-03-01T02:03:14;46.00;;;41.10;;
43216;SDS011;60511;42.686;23.300;2023-03-01T02:07:46;9.30;;;8.48;;
43216;SDS011;60511;42.686;23.300;2023-03-01T02:09:49;7.03;;;5.65;;
43216;SDS011;60511;42.686;23.300;2023-03-01T02:11:52;6.78;;;6.10;;
43216;SDS011;60511;42.686;23.300;2023-03-01T02:13:53;7.43;;;6.82;;
43216;SDS011;60511;42.686;23.300;2023-03-01T02:15:54;7.15;;;6.45;;
43216;SDS011;60511;42.686;23.300;2023-03-01T02:17:54;9.43;;;8.48;;
43216;SDS011;60511;42.686;23.300;2023-03-01T02:22:21;20.70;;;18.80;;
43216;SDS011;60511;42.686;23.300;2023-03-01T02:24:26;18.90;;;17.00;;
43216;SDS011;60511;42.686;23.300;2023-03-01T02:28:40;21.42;;;19.55;;
43216;SDS011;60511;42.686;23.300;2023-03-01T02:30:43;27.83;;;24.98;;
43216;SDS011;60511;42.686;23.300;2023-03-01T02:33:04;15.30;;;13.90;;
43216;SDS011;60511;42.686;23.300;2023-03-01T02:35:05;20.45;;;18.58;;
43216;SDS011;60511;42.686;23.300;2023-03-01T02:37:08;26.30;;;23.80;;
43216;SDS011;60511;42.686;23.300;2023-03-01T02:39:15;22.30;;;20.27;;
43216;SDS011;60511;42.686;23.300;2023-03-01T02:41:19;29.83;;;26.92;;
43216;SDS011;60511;42.686;23.300;2023-03-01T02:43:22;26.67;;;24.27;;
43216;SDS011;60511;42.686;23.300;2023-03-01T02:45:26;40.50;;;36.60;;
43216;SDS011;60511;42.686;23.300;2023-03-01T02:47:27;24.98;;;22.63;;
43216;SDS011;60511;42.686;23.300;2023-03-01T02:49:29;56.65;;;51.25;;
43216;SDS011;60511;42.686;23.300;2023-03-01T02:55:53;46.53;;;41.85;;
43216;SDS011;60511;42.686;23.300;2023-03-01T02:57:54;35.88;;;32.42;;
43216;SDS011;60511;42.686;23.300;2023-03-01T02:59:56;30.90;;;27.80;;
43216;SDS011;60511;42.686;23.300;2023-03-01T03:02:00;32.45;;;29.48;;
43216;SDS011;60511;42.686;23.300;2023-03-01T03:04:01;31.33;;;28.42;;
43216;SDS011;60511;42.686;23.300;2023-03-01T03:06:04;28.98;;;26.20;;
43216;SDS011;60511;42.686;23.300;2023-03-01T03:08:04;32.47;;;29.38;;
43216;SDS011;60511;42.686;23.300;2023-03-01T03:10:08;32.65;;;29.55;;
43216;SDS011;60511;42.686;23.300;2023-03-01T03:12:11;34.67;;;31.38;;
43216;SDS011;60511;42.686;23.300;2023-03-01T03:14:12;40.60;;;36.55;;
43216;SDS011;60511;42.686;23.300;2023-03-01T03:16:14;32.92;;;29.83;;
43216;SDS011;60511;42.686;23.300;2023-03-01T03:18:16;41.10;;;37.25;;
43216;SDS011;60511;42.686;23.300;2023-03-01T03:20:18;38.35;;;34.70;;
43216;SDS011;60511;42.686;23.300;2023-03-01T03:22:20;42.65;;;38.67;;
43216;SDS011;60511;42.686;23.300;2023-03-01T03:24:21;40.53;;;36.70;;
43216;SDS011;60511;42.686;23.300;2023-03-01T03:26:21;79.25;;;71.60;;
43216;SDS011;60511;42.686;23.300;2023-03-01T03:28:21;96.00;;;86.88;;
43216;SDS011;60511;42.686;23.300;2023-03-01T03:30:22;100.03;;;90.15;;
43216;SDS011;60511;42.686;23.300;2023-03-01T03:32:30;104.82;;;94.63;;
43216;SDS011;60511;42.686;23.300;2023-03-01T03:34:31;125.78;;;113.55;;
43216;SDS011;60511;42.686;23.300;2023-03-01T03:36:31;121.50;;;109.82;;
43216;SDS011;60511;42.686;23.300;2023-03-01T03:38:32;97.97;;;88.32;;
43216;SDS011;60511;42.686;23.300;2023-03-01T03:42:34;118.95;;;107.22;;
43216;SDS011;60511;42.686;23.300;2023-03-01T03:44:53;77.07;;;69.45;;
43216;SDS011;60511;42.686;23.300;2023-03-01T03:46:53;98.68;;;88.93;;
43216;SDS011;60511;42.686;23.300;2023-03-01T03:49:12;113.88;;;102.85;;
43216;SDS011;60511;42.686;23.300;2023-03-01T03:51:14;118.43;;;106.90;;
43216;SDS011;60511;42.686;23.300;2023-03-01T03:53:15;133.70;;;120.53;;
43216;SDS011;60511;42.686;23.300;2023-03-01T03:55:16;119.45;;;107.80;;
43216;SDS011;60511;42.686;23.300;2023-03-01T03:57:19;102.25;;;92.32;;
43216;SDS011;60511;42.686;23.300;2023-03-01T03:59:21;113.43;;;102.07;;
43216;SDS011;60511;42.686;23.300;2023-03-01T04:01:21;117.93;;;106.50;;
43216;SDS011;60511;42.686;23.300;2023-03-01T04:03:22;120.40;;;108.85;;
43216;SDS011;60511;42.686;23.300;2023-03-01T04:05:23;94.68;;;85.65;;
43216;SDS011;60511;42.686;23.300;2023-03-01T04:07:24;55.10;;;49.72;;
43216;SDS011;60511;42.686;23.300;2023-03-01T04:09:24;68.97;;;62.40;;
43216;SDS011;60511;42.686;23.300;2023-03-01T04:11:24;51.03;;;46.13;;
43216;SDS011;60511;42.686;23.300;2023-03-01T04:13:27;56.70;;;51.22;;
43216;SDS011;60511;42.686;23.300;2023-03-01T04:15:28;55.42;;;50.13;;
43216;SDS011;60511;42.686;23.300;2023-03-01T04:17:29;54.58;;;49.22;;
43216;SDS011;60511;42.686;23.300;2023-03-01T04:19:30;58.45;;;52.67;;
43216;SDS011;60511;42.686;23.300;2023-03-01T04:21:35;49.80;;;45.08;;
43216;SDS011;60511;42.686;23.300;2023-03-01T04:23:36;52.63;;;47.58;;
43216;SDS011;60511;42.686;23.300;2023-03-01T04:25:38;55.13;;;49.92;;
43216;SDS011;60511;42.686;23.300;2023-03-01T04:27:39;57.63;;;52.10;;
43216;SDS011;60511;42.686;23.300;2023-03-01T04:29:40;55.40;;;50.15;;
43216;SDS011;60511;42.686;23.300;2023-03-01T04:31:40;59.60;;;54.05;;
43216;SDS011;60511;42.686;23.300;2023-03-01T04:33:47;59.70;;;54.05;;
43216;SDS011;60511;42.686;23.300;2023-03-01T04:35:52;69.25;;;62.65;;
43216;SDS011;60511;42.686;23.300;2023-03-01T04:37:52;56.83;;;51.53;;
43216;SDS011;60511;42.686;23.300;2023-03-01T04:39:52;112.13;;;101.47;;
43216;SDS011;60511;42.686;23.300;2023-03-01T04:41:53;79.13;;;71.40;;
43216;SDS011;60511;42.686;23.300;2023-03-01T04:43:53;76.78;;;69.43;;
43216;SDS011;60511;42.686;23.300;2023-03-01T04:45:53;69.32;;;62.95;;
43216;SDS011;60511;42.686;23.300;2023-03-01T04:47:54;114.20;;;103.65;;
43216;SDS011;60511;42.686;23.300;2023-03-01T04:49:58;96.82;;;87.82;;
43216;SDS011;60511;42.686;23.300;2023-03-01T04:51:58;63.75;;;57.78;;
43216;SDS011;60511;42.686;23.300;2023-03-01T04:56:02;68.60;;;62.05;;
43216;SDS011;60511;42.686;23.300;2023-03-01T04:58:03;88.28;;;79.93;;
43216;SDS011;60511;42.686;23.300;2023-03-01T05:00:04;75.18;;;68.00;;
43216;SDS011;60511;42.686;23.300;2023-03-01T05:02:19;76.85;;;69.45;;
43216;SDS011;60511;42.686;23.300;2023-03-01T05:04:20;71.78;;;64.63;;
43216;SDS011;60511;42.686;23.300;2023-03-01T05:06:20;75.13;;;68.03;;
43216;SDS011;60511;42.686;23.300;2023-03-01T05:08:21;77.07;;;69.70;;
43216;SDS011;60511;42.686;23.300;2023-03-01T05:10:22;63.72;;;57.63;;
43216;SDS011;60511;42.686;23.300;2023-03-01T05:12:23;60.05;;;54.17;;
43216;SDS011;60511;42.686;23.300;2023-03-01T05:14:23;61.78;;;55.83;;
43216;SDS011;60511;42.686;23.300;2023-03-01T05:16:24;62.25;;;56.38;;
43216;SDS011;60511;42.686;23.300;2023-03-01T05:18:25;64.45;;;58.15;;
43216;SDS011;60511;42.686;23.300;2023-03-01T05:22:29;62.70;;;56.60;;
43216;SDS011;60511;42.686;23.300;2023-03-01T05:24:30;100.22;;;91.07;;
43216;SDS011;60511;42.686;23.300;2023-03-01T05:26:32;107.70;;;97.50;;
43216;SDS011;60511;42.686;23.300;2023-03-01T05:28:33;80.22;;;72.78;;
43216;SDS011;60511;42.686;23.300;2023-03-01T05:30:34;120.70;;;109.45;;
43216;SDS011;60511;42.686;23.300;2023-03-01T05:32:35;105.53;;;95.60;;
43216;SDS011;60511;42.686;23.300;2023-03-01T05:34:35;133.95;;;121.03;;
43216;SDS011;60511;42.686;23.300;2023-03-01T05:36:36;122.93;;;111.15;;
43216;SDS011;60511;42.686;23.300;2023-03-01T05:38:38;127.05;;;114.85;;
43216;SDS011;60511;42.686;23.300;2023-03-01T05:40:39;123.55;;;111.93;;
43216;SDS011;60511;42.686;23.300;2023-03-01T05:43:01;149.23;;;134.70;;
43216;SDS011;60511;42.686;23.300;2023-03-01T05:45:01;123.95;;;112.03;;
43216;SDS011;60511;42.686;23.300;2023-03-01T05:47:02;126.13;;;114.13;;
43216;SDS011;60511;42.686;23.300;2023-03-01T05:49:02;109.28;;;98.82;;
43216;SDS011;60511;42.686;23.300;2023-03-01T05:51:04;147.82;;;133.85;;
43216;SDS011;60511;42.686;23.300;2023-03-01T05:53:09;150.48;;;136.02;;
43216;SDS011;60511;42.686;23.300;2023-03-01T05:55:12;103.90;;;93.70;;
43216;SDS011;60511;42.686;23.300;2023-03-01T05:57:12;96.68;;;87.47;;
43216;SDS011;60511;42.686;23.300;2023-03-01T05:59:13;116.57;;;105.35;;
43216;SDS011;60511;42.686;23.300;2023-03-01T06:01:14;120.88;;;109.13;;
43216;SDS011;60511;42.686;23.300;2023-03-01T06:03:15;106.85;;;96.43;;
43216;SDS011;60511;42.686;23.300;2023-03-01T06:05:17;100.00;;;90.47;;
43216;SDS011;60511;42.686;23.300;2023-03-01T06:07:18;102.65;;;92.82;;
43216;SDS011;60511;42.686;23.300;2023-03-01T06:09:18;76.03;;;68.75;;
43216;SDS011;60511;42.686;23.300;2023-03-01T06:11:19;72.97;;;65.70;;
43216;SDS011;60511;42.686;23.300;2023-03-01T06:13:20;73.18;;;66.13;;
43216;SDS011;60511;42.686;23.300;2023-03-01T06:15:22;70.28;;;63.47;;
43216;SDS011;60511;42.686;23.300;2023-03-01T06:17:23;73.25;;;66.10;;
43216;SDS011;60511;42.686;23.300;2023-03-01T06:19:23;67.65;;;61.05;;
43216;SDS011;60511;42.686;23.300;2023-03-01T06:21:24;70.68;;;63.92;;
43216;SDS011;60511;42.686;23.300;2023-03-01T06:23:24;74.40;;;67.35;;
43216;SDS011;60511;42.686;23.300;2023-03-01T06:25:25;71.38;;;64.60;;
43216;SDS011;60511;42.686;23.300;2023-03-01T06:27:26;72.70;;;65.75;;
43216;SDS011;60511;42.686;23.300;2023-03-01T06:29:27;68.75;;;62.13;;
43216;SDS011;60511;42.686;23.300;2023-03-01T06:31:27;102.50;;;92.72;;
43216;SDS011;60511;42.686;23.300;2023-03-01T06:33:27;141.18;;;127.95;;
43216;SDS011;60511;42.686;23.300;2023-03-01T06:35:28;165.45;;;149.05;;
43216;SDS011;60511;42.686;23.300;2023-03-01T06:37:29;141.57;;;127.47;;
43216;SDS011;60511;42.686;23.300;2023-03-01T06:39:30;191.52;;;173.30;;
43216;SDS011;60511;42.686;23.300;2023-03-01T06:41:32;156.45;;;141.50;;
43216;SDS011;60511;42.686;23.300;2023-03-01T06:43:33;186.85;;;168.93;;
43216;SDS011;60511;42.686;23.300;2023-03-01T06:45:34;176.23;;;158.70;;
43216;SDS011;60511;42.686;23.300;2023-03-01T06:47:34;154.00;;;139.32;;
43216;SDS011;60511;42.686;23.300;2023-03-01T06:49:34;146.38;;;132.00;;
43216;SDS011;60511;42.686;23.300;2023-03-01T06:51:36;175.20;;;158.18;;
43216;SDS011;60511;42.686;23.300;2023-03-01T06:53:36;166.75;;;150.82;;
43216;SDS011;60511;42.686;23.300;2023-03-01T06:55:37;161.35;;;145.90;;
43216;SDS011;60511;42.686;23.300;2023-03-01T06:57:37;139.93;;;126.35;;
43216;SDS011;60511;42.686;23.300;2023-03-01T06:59:38;118.05;;;107.00;;
43216;SDS011;60511;42.686;23.300;2023-03-01T07:01:38;153.20;;;138.63;;
43216;SDS011;60511;42.686;23.300;2023-03-01T07:03:39;128.75;;;116.55;;
43216;SDS011;60511;42.686;23.300;2023-03-01T07:05:39;144.65;;;130.88;;
43216;SDS011;60511;42.686;23.300;2023-03-01T07:07:39;114.35;;;103.18;;
43216;SDS011;60511;42.686;23.300;2023-03-01T07:09:40;165.75;;;149.88;;
43216;SDS011;60511;42.686;23.300;2023-03-01T07:11:40;210.50;;;190.27;;
43216;SDS011;60511;42.686;23.300;2023-03-01T07:13:41;109.80;;;99.45;;
43216;SDS011;60511;42.686;23.300;2023-03-01T07:15:41;193.13;;;174.48;;
43216;SDS011;60511;42.686;23.300;2023-03-01T07:17:42;217.50;;;195.93;;
43216;SDS011;60511;42.686;23.300;2023-03-01T07:19:44;189.82;;;171.23;;
43216;SDS011;60511;42.686;23.300;2023-03-01T07:21:45;186.40;;;168.00;;
43216;SDS011;60511;42.686;23.300;2023-03-01T07:23:47;141.00;;;127.25;;
43216;SDS011;60511;42.686;23.300;2023-03-01T07:25:54;181.25;;;163.40;;
43216;SDS011;60511;42.686;23.300;2023-03-01T07:27:54;221.07;;;199.80;;
43216;SDS011;60511;42.686;23.300;2023-03-01T07:29:55;151.32;;;136.63;;
43216;SDS011;60511;42.686;23.300;2023-03-01T07:31:55;197.75;;;178.82;;
43216;SDS011;60511;42.686;23.300;2023-03-01T07:33:56;167.75;;;151.35;;
43216;SDS011;60511;42.686;23.300;2023-03-01T07:35:58;197.07;;;178.35;;
43216;SDS011;60511;42.686;23.300;2023-03-01T07:37:59;176.57;;;159.52;;
43216;SDS011;60511;42.686;23.300;2023-03-01T07:40:00;185.93;;;168.05;;
43216;SDS011;60511;42.686;23.300;2023-03-01T07:42:00;154.45;;;139.77;;
43216;SDS011;60511;42.686;23.300;2023-03-01T07:44:01;176.93;;;159.98;;
43216;SDS011;60511;42.686;23.300;2023-03-01T07:46:01;169.50;;;153.07;;
43216;SDS011;60511;42.686;23.300;2023-03-01T07:48:02;180.90;;;163.38;;
43216;SDS011;60511;42.686;23.300;2023-03-01T07:50:03;152.23;;;137.43;;
43216;SDS011;60511;42.686;23.300;2023-03-01T07:52:04;205.73;;;186.05;;
43216;SDS011;60511;42.686;23.300;2023-03-01T07:54:04;166.40;;;150.98;;
43216;SDS011;60511;42.686;23.300;2023-03-01T07:56:11;181.70;;;164.20;;
43216;SDS011;60511;42.686;23.300;2023-03-01T07:58:12;138.02;;;124.55;;
43216;SDS011;60511;42.686;23.300;2023-03-01T08:00:13;155.02;;;140.48;;
43216;SDS011;60511;42.686;23.300;2023-03-01T08:02:15;147.52;;;133.18;;
43216;SDS011;60511;42.686;23.300;2023-03-01T08:04:15;144.82;;;131.10;;
43216;SDS011;60511;42.686;23.300;2023-03-01T08:06:16;125.75;;;113.95;;
43216;SDS011;60511;42.686;23.300;2023-03-01T08:08:17;144.98;;;131.05;;
43216;SDS011;60511;42.686;23.300;2023-03-01T08:10:17;160.65;;;145.43;;
43216;SDS011;60511;42.686;23.300;2023-03-01T08:12:18;161.10;;;145.57;;
43216;SDS011;60511;42.686;23.300;2023-03-01T08:14:18;113.85;;;103.20;;
43216;SDS011;60511;42.686;23.300;2023-03-01T08:16:19;145.88;;;132.02;;
43216;SDS011;60511;42.686;23.300;2023-03-01T08:18:20;138.80;;;125.80;;
43216;SDS011;60511;42.686;23.300;2023-03-01T08:20:21;166.07;;;150.18;;
43216;SDS011;60511;42.686;23.300;2023-03-01T08:22:21;123.68;;;111.63;;
43216;SDS011;60511;42.686;23.300;2023-03-01T08:24:22;136.75;;;124.25;;
43216;SDS011;60511;42.686;23.300;2023-03-01T08:26:22;125.05;;;113.05;;
43216;SDS011;60511;42.686;23.300;2023-03-01T08:28:23;189.25;;;171.15;;
43216;SDS011;60511;42.686;23.300;2023-03-01T08:30:23;130.50;;;118.03;;
43216;SDS011;60511;42.686;23.300;2023-03-01T08:32:24;141.82;;;128.23;;
43216;SDS011;60511;42.686;23.300;2023-03-01T08:34:24;119.72;;;108.60;;
43216;SDS011;60511;42.686;23.300;2023-03-01T08:36:25;173.02;;;156.35;;
43216;SDS011;60511;42.686;23.300;2023-03-01T08:38:28;126.97;;;114.60;;
43216;SDS011;60511;42.686;23.300;2023-03-01T08:40:28;122.25;;;110.80;;
43216;SDS011;60511;42.686;23.300;2023-03-01T08:42:29;124.38;;;112.55;;
43216;SDS011;60511;42.686;23.300;2023-03-01T08:44:29;151.90;;;137.60;;
43216;SDS011;60511;42.686;23.300;2023-03-01T08:46:39;137.85;;;124.82;;
43216;SDS011;60511;42.686;23.300;2023-03-01T08:48:41;155.23;;;140.30;;
43216;SDS011;60511;42.686;23.300;2023-03-01T08:50:43;130.63;;;118.13;;
43216;SDS011;60511;42.686;23.300;2023-03-01T08:52:43;189.13;;;171.38;;
43216;SDS011;60511;42.686;23.300;2023-03-01T08:54:43;136.77;;;123.65;;
43216;SDS011;60511;42.686;23.300;2023-03-01T08:56:44;158.50;;;143.57;;
43216;SDS011;60511;42.686;23.300;2023-03-01T08:58:46;185.30;;;167.32;;
43216;SDS011;60511;42.686;23.300;2023-03-01T09:00:47;176.73;;;159.80;;
43216;SDS011;60511;42.686;23.300;2023-03-01T09:02:48;130.13;;;117.60;;
43216;SDS011;60511;42.686;23.300;2023-03-01T09:04:48;119.72;;;108.22;;
43216;SDS011;60511;42.686;23.300;2023-03-01T09:06:48;136.70;;;123.47;;
43216;SDS011;60511;42.686;23.300;2023-03-01T09:08:49;152.35;;;137.65;;
43216;SDS011;60511;42.686;23.300;2023-03-01T09:10:50;124.20;;;112.43;;
43216;SDS011;60511;42.686;23.300;2023-03-01T09:12:51;159.38;;;144.13;;
43216;SDS011;60511;42.686;23.300;2023-03-01T09:14:51;133.15;;;120.40;;
43216;SDS011;60511;42.686;23.300;2023-03-01T09:16:52;167.50;;;151.27;;
43216;SDS011;60511;42.686;23.300;2023-03-01T09:18:53;155.65;;;140.88;;
43216;SDS011;60511;42.686;23.300;2023-03-01T09:21:04;141.18;;;127.97;;
43216;SDS011;60511;42.686;23.300;2023-03-01T09:23:07;155.77;;;140.70;;
43216;SDS011;60511;42.686;23.300;2023-03-01T09:25:07;205.85;;;186.40;;
43216;SDS011;60511;42.686;23.300;2023-03-01T09:27:08;169.48;;;153.52;;
43216;SDS011;60511;42.686;23.300;2023-03-01T09:29:09;174.90;;;158.05;;
43216;SDS011;60511;42.686;23.300;2023-03-01T09:31:10;176.68;;;159.85;;
43216;SDS011;60511;42.686;23.300;2023-03-01T09:33:12;184.85;;;166.90;;
43216;SDS011;60511;42.686;23.300;2023-03-01T09:35:14;148.77;;;134.60;;
43216;SDS011;60511;42.686;23.300;2023-03-01T09:37:15;188.73;;;170.55;;
43216;SDS011;60511;42.686;23.300;2023-03-01T09:39:15;174.52;;;158.13;;
43216;SDS011;60511;42.686;23.300;2023-03-01T09:41:21;141.82;;;128.15;;
43216;SDS011;60511;42.686;23.300;2023-03-01T09:43:29;158.20;;;143.25;;
43216;SDS011;60511;42.686;23.300;2023-03-01T09:45:40;208.90;;;189.25;;
43216;SDS011;60511;42.686;23.300;2023-03-01T09:47:44;139.50;;;126.20;;
43216;SDS011;60511;42.686;23.300;2023-03-01T09:49:55;173.77;;;156.85;;
43216;SDS011;60511;42.686;23.300;2023-03-01T09:54:27;150.40;;;135.88;;
43216;SDS011;60511;42.686;23.300;2023-03-01T09:56:41;161.13;;;145.85;;
43216;SDS011;60511;42.686;23.300;2023-03-01T09:58:48;161.98;;;146.43;;
43216;SDS011;60511;42.686;23.300;2023-03-01T10:00:56;251.52;;;227.73;;
43216;SDS011;60511;42.686;23.300;2023-03-01T10:03:08;194.88;;;176.02;;
43216;SDS011;60511;42.686;23.300;2023-03-01T10:05:41;131.63;;;118.78;;
43216;SDS011;60511;42.686;23.300;2023-03-01T10:07:52;200.50;;;181.52;;
43216;SDS011;60511;42.686;23.300;2023-03-01T10:10:01;239.20;;;215.88;;
43216;SDS011;60511;42.686;23.300;2023-03-01T10:12:07;245.13;;;221.75;;
43216;SDS011;60511;42.686;23.300;2023-03-01T10:17:08;178.40;;;161.55;;
43216;SDS011;60511;42.686;23.300;2023-03-01T10:19:31;190.98;;;172.88;;
43216;SDS011;60511;42.686;23.300;2023-03-01T10:21:43;228.73;;;206.80;;
43216;SDS011;60511;42.686;23.300;2023-03-01T10:23:45;203.88;;;184.57;;
43216;SDS011;60511;42.686;23.300;2023-03-01T10:28:10;191.40;;;172.88;;
43216;SDS011;60511;42.686;23.300;2023-03-01T10:30:22;216.05;;;195.57;;
43216;SDS011;60511;42.686;23.300;2023-03-01T10:32:27;264.45;;;238.65;;
43216;SDS011;60511;42.686;23.300;2023-03-01T10:34:29;210.93;;;190.45;;
43216;SDS011;60511;42.686;23.300;2023-03-01T10:36:32;202.02;;;182.93;;
43216;SDS011;60511;42.686;23.300;2023-03-01T10:38:50;229.10;;;207.50;;
43216;SDS011;60511;42.686;23.300;2023-03-01T10:41:15;181.85;;;164.27;;
43216;SDS011;60511;42.686;23.300;2023-03-01T10:43:14;201.75;;;182.45;;
43216;SDS011;60511;42.686;23.300;2023-03-01T10:47:34;184.45;;;167.02;;
43216;SDS011;60511;42.686;23.300;2023-03-01T10:49:34;203.15;;;183.95;;
43216;SDS011;60511;42.686;23.300;2023-03-01T10:51:35;165.70;;;149.73;;
43216;SDS011;60511;42.686;23.300;2023-03-01T10:53:37;206.50;;;186.48;;
43216;SDS011;60511;42.686;23.300;2023-03-01T10:55:38;269.83;;;243.60;;
43216;SDS011;60511;42.686;23.300;2023-03-01T10:57:40;158.80;;;144.10;;
43216;SDS011;60511;42.686;23.300;2023-03-01T10:59:41;234.63;;;212.45;;
43216;SDS011;60511;42.686;23.300;2023-03-01T11:01:41;252.27;;;228.18;;
43216;SDS011;60511;42.686;23.300;2023-03-01T11:03:42;214.27;;;193.57;;
43216;SDS011;60511;42.686;23.300;2023-03-01T11:05:53;223.45;;;202.27;;
43216;SDS011;60511;42.686;23.300;2023-03-01T11:07:56;206.77;;;186.95;;
43216;SDS011;60511;42.686;23.300;2023-03-01T11:09:58;201.35;;;181.85;;
43216;SDS011;60511;42.686;23.300;2023-03-01T11:11:59;166.15;;;150.32;;
43216;SDS011;60511;42.686;23.300;2023-03-01T11:14:03;202.57;;;183.82;;
43216;SDS011;60511;42.686;23.300;2023-03-01T11:16:22;191.30;;;172.95;;
43216;SDS011;60511;42.686;23.300;2023-03-01T11:18:43;191.70;;;173.27;;
43216;SDS011;60511;42.686;23.300;2023-03-01T11:20:56;165.07;;;149.18;;
43216;SDS011;60511;42.686;23.300;2023-03-01T11:23:04;220.57;;;199.52;;
43216;SDS011;60511;42.686;23.300;2023-03-01T11:25:11;221.10;;;200.05;;
43216;SDS011;60511;42.686;23.300;2023-03-01T11:27:18;276.20;;;249.95;;
43216;SDS011;60511;42.686;23.300;2023-03-01T11:29:30;242.98;;;219.50;;
43216;SDS011;60511;42.686;23.300;2023-03-01T11:31:36;165.82;;;150.10;;
43216;SDS011;60511;42.686;23.300;2023-03-01T11:36:01;224.57;;;203.00;;
43216;SDS011;60511;42.686;23.300;2023-03-01T11:38:15;179.82;;;162.75;;
43216;SDS011;60511;42.686;23.300;2023-03-01T11:40:20;176.98;;;159.98;;
43216;SDS011;60511;42.686;23.300;2023-03-01T11:42:28;198.32;;;179.32;;
43216;SDS011;60511;42.686;23.300;2023-03-01T11:44:39;162.80;;;147.35;;
43216;SDS011;60511;42.686;23.300;2023-03-01T11:51:31;177.93;;;160.98;;
43216;SDS011;60511;42.686;23.300;2023-03-01T11:58:39;209.27;;;189.43;;
43216;SDS011;60511;42.686;23.300;2023-03-01T12:00:57;179.93;;;163.02;;
43216;SDS011;60511;42.686;23.300;2023-03-01T12:07:52;154.02;;;139.35;;
43216;SDS011;60511;42.686;23.300;2023-03-01T12:12:28;230.40;;;208.40;;
43216;SDS011;60511;42.686;23.300;2023-03-01T12:24:16;285.35;;;257.33;;
43216;SDS011;60511;42.686;23.300;2023-03-01T12:26:26;294.33;;;266.25;;
43216;SDS011;60511;42.686;23.300;2023-03-01T12:28:47;244.18;;;220.93;;
43216;SDS011;60511;42.686;23.300;2023-03-01T12:35:16;202.02;;;182.60;;
43216;SDS011;60511;42.686;23.300;2023-03-01T12:42:33;254.68;;;230.38;;
43216;SDS011;60511;42.686;23.300;2023-03-01T12:47:13;242.90;;;219.40;;
43216;SDS011;60511;42.686;23.300;2023-03-01T12:49:34;255.93;;;231.65;;
43216;SDS011;60511;42.686;23.300;2023-03-01T12:51:40;239.55;;;217.10;;